Time;durP1;ratioP1;P1;durP2;ratioP2;P2;SDS_P1;SDS_P2;PMS_P1;PMS_P2;Temp;Humidity;BMP_temperature;BMP_pressure;BME280_temperature;BME280_humidity;BME280_pressure;Samples;Min_cycle;Max_cycle;Signal;HPM_P1;HPM_P2
2022/04/03 00:01:51;;;;;;;19.33;17.33;;;0.60;99.90;;;1.32;100.00;97924.66;5215890;28;20232;-83
2022/04/03 00:04:25;;;;;;;17.77;16.07;;;0.60;99.90;;;1.32;100.00;97927.19;5217267;28;20249;-84
2022/04/03 00:06:59;;;;;;;19.03;17.23;;;0.70;99.90;;;1.27;100.00;97927.50;5217016;28;20215;-82
2022/04/03 00:09:33;;;;;;;17.20;15.50;;;0.60;99.90;;;1.25;100.00;97932.38;5220871;28;20194;-83
2022/04/03 00:12:07;;;;;;;17.10;15.07;;;0.60;99.90;;;1.23;100.00;97932.97;5213370;28;20264;-83
2022/04/03 00:14:40;;;;;;;16.97;15.50;;;0.60;99.90;;;1.21;100.00;97921.91;5215703;28;20243;-84
2022/04/03 00:17:13;;;;;;;16.30;14.77;;;0.50;99.90;;;1.13;100.00;97928.72;5216532;28;20339;-83
2022/04/03 00:19:48;;;;;;;17.97;16.13;;;0.50;99.90;;;1.21;100.00;97925.28;5214703;28;20231;-83
2022/04/03 00:22:21;;;;;;;17.03;15.40;;;0.50;99.90;;;1.12;100.00;97929.47;5220111;28;20206;-83
2022/04/03 00:24:54;;;;;;;16.30;14.73;;;0.50;99.90;;;1.16;100.00;97921.44;5223894;28;20236;-84
2022/04/03 00:27:27;;;;;;;16.87;15.17;;;0.50;99.90;;;1.17;100.00;97924.84;5213227;28;20198;-83
2022/04/03 00:30:02;;;;;;;17.33;15.60;;;0.50;99.90;;;1.20;100.00;97923.50;5209956;28;20216;-82
2022/04/03 00:32:37;;;;;;;16.67;15.07;;;0.50;99.90;;;1.23;100.00;97931.38;5216052;28;20231;-83
2022/04/03 00:35:12;;;;;;;15.67;14.10;;;0.50;99.90;;;1.22;100.00;97929.56;5215220;28;20213;-82
2022/04/03 00:37:45;;;;;;;16.20;14.80;;;0.50;99.90;;;1.22;100.00;97929.56;5212540;28;20667;-82
2022/04/03 00:40:23;;;;;;;17.10;15.30;;;0.50;99.90;;;1.27;100.00;97933.41;5213414;28;20206;-82
2022/04/03 00:42:57;;;;;;;16.60;14.93;;;0.50;99.90;;;1.29;100.00;97934.44;5210925;28;20585;-82
2022/04/03 00:45:30;;;;;;;16.83;15.17;;;0.50;99.90;;;1.28;100.00;97932.66;5214852;28;20229;-82
2022/04/03 00:48:03;;;;;;;15.57;14.07;;;0.60;99.90;;;1.31;100.00;97930.41;5213771;28;20718;-81
2022/04/03 00:50:38;;;;;;;16.37;14.87;;;0.50;99.90;;;1.31;100.00;97935.47;5213016;28;20213;-81
2022/04/03 00:53:12;;;;;;;16.93;15.33;;;0.60;99.90;;;1.30;100.00;97932.81;5213588;28;20719;-81
2022/04/03 00:55:45;;;;;;;16.53;14.93;;;0.50;99.90;;;1.26;100.00;97931.66;5210673;28;20229;-82
2022/04/03 00:58:19;;;;;;;16.93;15.20;;;0.50;99.90;;;1.21;100.00;97929.44;5213412;28;20222;-82
2022/04/03 01:00:52;;;;;;;15.40;13.80;;;0.50;99.90;;;1.17;100.00;97933.28;5211581;28;20205;-82
2022/04/03 01:03:25;;;;;;;16.20;14.03;;;0.40;99.90;;;1.11;100.00;97937.75;5214002;28;20361;-84
2022/04/03 01:06:00;;;;;;;16.27;14.70;;;0.50;99.90;;;1.01;100.00;97938.50;5208840;28;20244;-82
2022/04/03 01:08:34;;;;;;;15.97;14.37;;;0.40;99.90;;;1.04;100.00;97937.94;5213629;28;20263;-83
2022/04/03 01:11:07;;;;;;;16.73;15.07;;;0.40;99.90;;;1.02;100.00;97935.25;5214768;28;20205;-83
2022/04/03 01:13:50;;;;;;;16.97;15.27;;;0.40;99.90;;;1.07;100.00;97933.19;5216067;28;20216;-84
2022/04/03 01:16:23;;;;;;;16.17;14.53;;;0.50;99.90;;;1.07;100.00;97930.66;5210958;28;20232;-82
2022/04/03 01:18:56;;;;;;;16.93;15.23;;;0.50;99.90;;;1.03;100.00;97932.00;5210963;28;20670;-84
2022/04/03 01:21:31;;;;;;;16.00;14.60;;;0.40;99.90;;;1.05;100.00;97940.56;5215538;28;20666;-82
2022/04/03 01:24:12;;;;;;;16.30;14.60;;;0.40;99.90;;;0.96;100.00;97937.19;5218391;28;20240;-82
2022/04/03 01:26:47;;;;;;;16.90;14.40;;;0.40;99.90;;;0.77;100.00;97941.19;5218800;28;20570;-82
2022/04/03 01:29:21;;;;;;;16.73;14.93;;;0.30;99.90;;;0.95;100.00;97949.63;5219789;28;20264;-82
2022/04/03 01:31:55;;;;;;;16.30;14.60;;;0.40;99.90;;;1.02;100.00;97950.34;5213603;28;20232;-82
2022/04/03 01:34:28;;;;;;;17.40;15.70;;;0.40;99.90;;;1.08;100.00;97950.03;5218989;28;20279;-82
2022/04/03 01:37:01;;;;;;;17.33;15.63;;;0.50;99.90;;;1.10;100.00;97941.91;5217175;28;20324;-83
2022/04/03 01:39:35;;;;;;;17.67;15.77;;;0.50;99.90;;;1.11;100.00;97950.31;5219535;28;20297;-82
2022/04/03 01:42:09;;;;;;;17.37;15.77;;;0.50;99.90;;;1.01;100.00;97952.72;5216286;28;20197;-83
2022/04/03 01:44:42;;;;;;;17.63;15.93;;;0.40;99.90;;;0.89;100.00;97953.34;5229127;28;20239;-83
2022/04/03 01:47:15;;;;;;;16.67;14.93;;;0.30;99.90;;;0.92;100.00;97954.34;5226634;28;20607;-83
2022/04/03 01:49:49;;;;;;;16.03;14.43;;;0.30;99.90;;;0.72;100.00;97962.53;5219867;28;20194;-83
2022/04/03 01:52:22;;;;;;;16.70;15.03;;;0.30;99.90;;;0.87;100.00;97959.84;5218597;28;20209;-83
2022/04/03 01:54:55;;;;;;;17.30;15.60;;;0.40;99.90;;;1.01;100.00;97960.28;5223585;28;20200;-84
2022/04/03 01:57:29;;;;;;;17.90;15.67;;;0.40;99.90;;;1.04;100.00;97958.94;5224419;28;20282;-82
2022/04/03 02:00:05;;;;;;;16.67;14.73;;;0.50;99.90;;;1.12;100.00;97960.56;5226642;28;20204;-82
2022/04/03 02:02:40;;;;;;;18.13;15.97;;;0.50;99.90;;;1.18;100.00;97952.69;5223605;28;20232;-82
2022/04/03 02:05:13;;;;;;;17.17;15.47;;;0.50;99.90;;;1.24;100.00;97958.31;5227562;28;20213;-84
2022/04/03 02:07:46;;;;;;;17.00;15.30;;;0.50;99.90;;;1.23;100.00;97961.56;5219255;28;20222;-83
2022/04/03 02:10:19;;;;;;;16.50;14.93;;;0.50;99.90;;;1.31;100.00;97959.75;5224882;28;20202;-82
2022/04/03 02:12:54;;;;;;;16.30;14.60;;;0.60;99.90;;;1.34;100.00;97960.03;5215008;28;20268;-83
2022/04/03 02:15:27;;;;;;;17.50;15.73;;;0.60;99.90;;;1.35;100.00;97964.34;5229038;28;20208;-82
2022/04/03 02:18:00;;;;;;;18.93;16.10;;;0.60;99.90;;;1.32;100.00;97964.06;5220836;28;20217;-83
2022/04/03 02:20:34;;;;;;;17.40;15.17;;;0.60;99.90;;;1.32;100.00;97962.44;5219659;28;20225;-82
2022/04/03 02:23:07;;;;;;;17.50;15.87;;;0.50;99.90;;;1.35;100.00;97967.75;5215841;28;20220;-82
2022/04/03 02:25:40;;;;;;;16.17;14.57;;;0.60;99.90;;;1.32;100.00;97959.91;5218242;28;20195;-82
2022/04/03 02:28:15;;;;;;;17.57;15.77;;;0.50;99.90;;;1.32;100.00;97961.56;5209823;28;20230;-82
2022/04/03 02:30:49;;;;;;;17.67;15.87;;;0.60;99.90;;;1.31;100.00;97960.63;5218740;28;20206;-82
2022/04/03 02:33:22;;;;;;;16.83;14.93;;;0.60;99.90;;;1.15;100.00;97967.50;5213944;28;20236;-82
2022/04/03 02:35:55;;;;;;;16.57;14.87;;;0.60;99.90;;;1.16;100.00;97974.31;5216582;28;20198;-82
2022/04/03 02:38:28;;;;;;;17.10;15.60;;;0.50;99.90;;;1.14;100.00;97975.78;5217378;28;20777;-85
2022/04/03 02:41:01;;;;;;;16.33;14.73;;;0.50;99.90;;;1.16;100.00;97973.44;5221975;28;20202;-82
2022/04/03 02:43:35;;;;;;;18.43;16.67;;;0.50;99.90;;;1.20;100.00;97973.84;5224504;28;20217;-83
2022/04/03 02:46:08;;;;;;;18.30;16.30;;;0.50;99.90;;;1.30;100.00;97973.09;5216070;28;20233;-81
2022/04/03 02:48:42;;;;;;;17.97;16.07;;;0.50;99.90;;;1.27;100.00;97982.88;5215370;28;20291;-82
2022/04/03 02:51:15;;;;;;;18.10;16.27;;;0.50;99.90;;;1.17;100.00;97986.13;5214071;28;20203;-82
2022/04/03 02:53:48;;;;;;;18.57;16.63;;;0.50;99.90;;;1.15;100.00;97977.56;5215877;28;20220;-82
2022/04/03 02:56:21;;;;;;;17.73;16.03;;;0.50;99.90;;;1.13;100.00;97984.09;5214971;28;20207;-83
2022/04/03 02:58:56;;;;;;;18.40;16.60;;;0.50;99.90;;;1.22;100.00;97987.47;5215477;28;20218;-83
2022/04/03 03:01:29;;;;;;;18.10;16.07;;;0.60;99.90;;;1.19;100.00;97987.19;5214128;28;20205;-84
2022/04/03 03:04:02;;;;;;;17.23;15.57;;;0.50;99.90;;;1.26;100.00;97987.03;5212112;28;20280;-83
2022/04/03 03:06:35;;;;;;;18.80;16.87;;;0.60;99.90;;;1.24;100.00;97987.63;5212257;28;20196;-83
2022/04/03 03:09:08;;;;;;;17.93;16.13;;;0.50;99.90;;;1.24;100.00;97980.97;5219085;28;20243;-82
2022/04/03 03:11:42;;;;;;;18.57;16.67;;;0.50;99.90;;;1.33;100.00;97981.81;5215896;28;20226;-82
2022/04/03 03:14:17;;;;;;;19.47;17.47;;;0.50;99.90;;;1.38;100.00;97981.38;5216888;28;20232;-84
2022/04/03 03:16:50;;;;;;;19.07;17.13;;;0.50;99.90;;;1.35;100.00;97982.84;5219358;28;20247;-83
2022/04/03 03:19:23;;;;;;;18.90;16.83;;;0.60;99.90;;;1.40;100.00;97984.91;5217831;28;20230;-82
2022/04/03 03:21:56;;;;;;;18.40;16.57;;;0.60;99.90;;;1.40;100.00;97982.38;5217568;28;20205;-84
2022/04/03 03:24:30;;;;;;;19.00;17.03;;;0.60;99.90;;;1.35;100.00;97977.81;5219187;28;20712;-83
2022/04/03 03:27:04;;;;;;;19.07;17.10;;;0.60;99.90;;;1.23;100.00;97989.25;5213950;28;20283;-83
2022/04/03 03:29:39;;;;;;;19.67;17.67;;;0.50;99.90;;;1.24;100.00;97980.97;5221492;28;20213;-83
2022/04/03 03:32:12;;;;;;;20.00;18.00;;;0.50;99.90;;;1.28;100.00;97974.56;5216634;28;20197;-83
2022/04/03 03:34:45;;;;;;;18.47;16.57;;;0.50;99.90;;;1.34;100.00;97980.19;5218234;28;20203;-83
2022/04/03 03:37:18;;;;;;;19.30;17.27;;;0.50;99.90;;;1.34;100.00;97970.09;5215885;28;20217;-82
2022/04/03 03:39:53;;;;;;;20.17;18.07;;;0.60;99.90;;;1.37;100.00;97979.59;5215602;28;20225;-81
2022/04/03 03:42:26;;;;;;;20.17;18.07;;;0.60;99.90;;;1.33;100.00;97983.44;5219224;28;20307;-82
2022/04/03 03:45:01;;;;;;;17.87;16.07;;;0.50;99.90;;;1.25;100.00;97990.28;5218249;28;20202;-83
2022/04/03 03:47:34;;;;;;;19.60;17.67;;;0.50;99.90;;;1.19;100.00;97987.19;5218312;28;20205;-82
2022/04/03 03:50:08;;;;;;;25.77;22.50;;;0.40;99.90;;;1.22;100.00;97984.94;5221942;28;20198;-82
2022/04/03 03:52:42;;;;;;;66.17;55.50;;;0.50;99.90;;;1.30;100.00;97990.72;5217568;28;20661;-82
2022/04/03 03:55:15;;;;;;;64.70;53.93;;;0.50;99.90;;;1.32;100.00;97995.16;5216585;28;20202;-83
2022/04/03 03:57:48;;;;;;;25.20;22.67;;;0.60;99.90;;;1.27;100.00;97998.88;5224320;28;20221;-83
2022/04/03 04:00:23;;;;;;;23.00;20.17;;;0.40;99.90;;;1.26;100.00;98004.66;5220884;28;20203;-81
2022/04/03 04:02:56;;;;;;;19.70;17.63;;;0.40;99.90;;;1.28;100.00;97995.59;5212809;28;20218;-83
2022/04/03 04:05:29;;;;;;;20.53;18.43;;;0.50;99.90;;;1.24;100.00;97996.06;5213682;28;20218;-82
2022/04/03 04:08:03;;;;;;;20.73;18.03;;;0.50;99.90;;;1.28;100.00;98004.78;5215988;28;20206;-82
2022/04/03 04:10:36;;;;;;;20.93;18.77;;;0.50;99.90;;;1.26;100.00;98009.69;5214406;28;20230;-82
2022/04/03 04:13:09;;;;;;;19.53;17.50;;;0.50;99.90;;;1.24;100.00;98001.09;5215781;28;20719;-82
2022/04/03 04:15:44;;;;;;;18.40;16.57;;;0.50;99.90;;;1.24;100.00;98002.72;5216236;28;20202;-82
2022/04/03 04:18:18;;;;;;;18.60;16.57;;;0.50;99.90;;;1.25;100.00;98009.53;5216885;28;20292;-82
2022/04/03 04:20:53;;;;;;;19.23;17.13;;;0.50;99.90;;;1.21;100.00;98013.41;5226190;28;20281;-82
2022/04/03 04:23:26;;;;;;;20.63;17.73;;;0.50;99.90;;;1.22;100.00;98015.16;5218295;28;20236;-82
2022/04/03 04:25:59;;;;;;;18.23;16.43;;;0.40;99.90;;;1.27;100.00;98015.59;5215362;28;20659;-81
2022/04/03 04:28:32;;;;;;;19.07;17.17;;;0.50;99.90;;;1.35;100.00;98017.22;5220665;28;20255;-82
2022/04/03 04:31:07;;;;;;;19.50;17.63;;;0.60;99.90;;;1.33;100.00;98024.63;5219323;28;20201;-82
2022/04/03 04:33:40;;;;;;;18.33;16.17;;;0.60;99.90;;;1.34;100.00;98026.41;5228118;28;20337;-81
2022/04/03 04:36:13;;;;;;;20.80;17.53;;;0.60;99.90;;;1.33;100.00;98026.25;5222317;28;20209;-83
2022/04/03 04:38:47;;;;;;;18.57;16.63;;;0.60;99.90;;;1.29;100.00;98027.59;5225740;28;20216;-81
2022/04/03 04:41:20;;;;;;;18.57;16.73;;;0.50;99.90;;;1.28;100.00;98025.81;5217023;28;20198;-81
2022/04/03 04:43:54;;;;;;;17.03;15.47;;;0.50;99.90;;;1.28;100.00;98035.00;5224424;28;20258;-82
2022/04/03 04:46:29;;;;;;;18.03;16.17;;;0.50;99.90;;;1.25;100.00;98029.66;5222293;28;20199;-82
2022/04/03 04:49:03;;;;;;;17.77;15.87;;;0.50;99.90;;;1.30;100.00;98024.31;5215700;28;20207;-82
2022/04/03 04:51:36;;;;;;;20.23;17.70;;;0.50;99.90;;;1.24;100.00;98033.81;5219377;28;20238;-83
2022/04/03 04:54:09;;;;;;;17.30;15.67;;;0.40;99.90;;;1.23;100.00;98032.06;5230378;28;20250;-81
2022/04/03 04:56:42;;;;;;;17.13;15.57;;;0.40;99.90;;;1.20;100.00;98036.75;5220619;28;20194;-81
2022/04/03 04:59:15;;;;;;;16.27;14.67;;;0.40;99.90;;;1.18;100.00;98040.78;5229075;28;20254;-83
2022/04/03 05:01:50;;;;;;;18.30;16.43;;;0.40;99.90;;;1.20;100.00;98043.44;5222146;28;20217;-81
2022/04/03 05:04:24;;;;;;;18.07;16.27;;;0.40;99.90;;;1.17;100.00;98041.50;5227499;28;20710;-83
2022/04/03 05:06:57;;;;;;;18.17;16.33;;;0.40;99.90;;;1.22;100.00;98044.47;5229327;28;20226;-83
2022/04/03 05:09:31;;;;;;;16.93;15.23;;;0.50;99.90;;;1.25;100.00;98040.63;5232592;28;20203;-82
2022/04/03 05:12:06;;;;;;;17.30;15.43;;;0.40;99.90;;;1.25;100.00;98050.69;5225354;28;20578;-82
2022/04/03 05:14:39;;;;;;;16.53;14.83;;;0.50;99.90;;;1.21;100.00;98052.78;5226030;28;20237;-82
2022/04/03 05:17:14;;;;;;;17.87;15.47;;;0.40;99.90;;;1.15;100.00;98055.59;5226058;28;20277;-83
2022/04/03 05:19:48;;;;;;;16.77;14.97;;;0.40;99.90;;;1.19;100.00;98060.19;5220511;28;20244;-83
2022/04/03 05:22:23;;;;;;;16.83;15.03;;;0.40;99.90;;;1.15;100.00;98065.66;5220094;28;20209;-83
2022/04/03 05:24:56;;;;;;;16.27;14.70;;;0.30;99.90;;;1.16;100.00;98066.56;5222049;28;20197;-82
2022/04/03 05:27:29;;;;;;;16.77;14.87;;;0.30;99.90;;;1.17;100.00;98074.22;5214807;28;20202;-82
2022/04/03 05:30:03;;;;;;;16.03;14.43;;;0.30;99.90;;;1.19;100.00;98081.94;5220596;28;20198;-82
2022/04/03 05:32:38;;;;;;;16.90;15.20;;;0.40;99.90;;;1.25;100.00;98074.97;5218480;28;20222;-82
2022/04/03 05:35:13;;;;;;;16.97;15.37;;;0.40;99.90;;;1.26;100.00;98081.78;5221928;28;20227;-82
2022/04/03 05:37:48;;;;;;;16.40;14.70;;;0.40;99.90;;;1.30;100.00;98088.91;5230528;28;20202;-84
2022/04/03 05:40:22;;;;;;;16.43;14.83;;;0.40;99.90;;;1.30;100.00;98079.72;5234652;28;20233;-84
2022/04/03 05:42:55;;;;;;;16.20;14.50;;;0.50;99.90;;;1.29;100.00;98082.09;5234318;28;20210;-83
2022/04/03 05:45:29;;;;;;;16.57;14.87;;;0.40;99.90;;;1.32;100.00;98083.28;5230612;28;20197;-83
2022/04/03 05:48:04;;;;;;;16.83;15.13;;;0.50;99.90;;;1.42;100.00;98082.50;5212999;28;20195;-83
2022/04/03 05:50:41;;;;;;;16.27;14.77;;;0.50;99.90;;;1.48;100.00;98087.25;5219586;28;20215;-83
2022/04/03 05:53:14;;;;;;;16.50;14.80;;;0.60;99.90;;;1.53;100.00;98097.03;5219508;28;20706;-82
2022/04/03 05:55:47;;;;;;;17.47;14.97;;;0.60;99.90;;;1.71;100.00;98102.03;5220141;28;20683;-82
2022/04/03 05:58:24;;;;;;;16.77;15.03;;;0.70;99.90;;;1.76;100.00;98093.28;5215031;28;20296;-82
2022/04/03 06:00:57;;;;;;;16.27;14.70;;;0.80;99.90;;;1.89;100.00;98097.81;5213935;28;20217;-82
2022/04/03 06:03:33;;;;;;;16.03;14.53;;;0.90;99.90;;;1.95;100.00;98100.94;5212312;28;20271;-82
2022/04/03 06:06:06;;;;;;;15.33;13.67;;;0.90;99.90;;;2.16;100.00;98097.88;5209820;28;20870;-85
2022/04/03 06:08:40;;;;;;;15.47;14.00;;;1.00;99.90;;;1.97;95.92;98101.94;5213197;28;20243;-83
2022/04/03 06:11:13;;;;;;;15.67;14.07;;;0.90;99.90;;;2.51;100.00;98099.38;5210570;28;20274;-82
2022/04/03 06:13:46;;;;;;;15.63;14.03;;;1.30;99.90;;;2.67;98.70;98111.00;5210676;28;20225;-83
2022/04/03 06:16:19;;;;;;;15.50;14.00;;;1.40;99.90;;;2.89;98.97;98107.88;5209078;28;20458;-83
2022/04/03 06:18:55;;;;;;;14.10;12.80;;;1.50;99.90;;;2.82;95.31;98110.63;5209152;28;20205;-83
2022/04/03 06:21:28;;;;;;;14.57;13.17;;;1.60;99.90;;;3.11;98.73;98119.16;5208484;28;20252;-82
2022/04/03 06:24:02;;;;;;;14.70;13.20;;;1.80;99.90;;;3.07;96.54;98122.19;5210342;28;20241;-82
2022/04/03 06:26:35;;;;;;;14.23;12.93;;;1.70;99.90;;;3.02;93.91;98120.88;5214082;28;20281;-82
2022/04/03 06:29:08;;;;;;;11.27;10.17;;;1.60;99.90;;;2.94;91.09;98114.25;5208078;28;20195;-83
2022/04/03 06:31:41;;;;;;;12.10;11.07;;;1.60;99.90;;;2.75;89.99;98114.22;5213145;28;20266;-83
2022/04/03 06:34:16;;;;;;;11.50;10.60;;;1.50;99.90;;;2.59;89.34;98127.06;5207874;28;20229;-84
2022/04/03 06:36:50;;;;;;;12.90;11.80;;;1.50;99.90;;;2.65;89.37;98121.69;5210134;28;20250;-83
2022/04/03 06:39:23;;;;;;;12.93;11.83;;;1.50;99.90;;;2.75;91.70;98119.28;5209379;28;20294;-86
2022/04/03 06:41:56;;;;;;;13.00;11.77;;;1.50;99.90;;;2.77;91.86;98116.88;5209755;28;20284;-82
2022/04/03 06:44:31;;;;;;;13.27;12.00;;;1.60;99.90;;;2.66;89.04;98116.81;5208549;28;20218;-83
2022/04/03 06:47:05;;;;;;;12.07;10.97;;;1.50;99.90;;;2.80;92.24;98117.16;5212331;28;20262;-82
2022/04/03 06:49:40;;;;;;;12.40;11.30;;;1.60;99.90;;;2.93;90.92;98120.94;5209597;28;20197;-82
2022/04/03 06:52:14;;;;;;;13.07;11.87;;;1.70;99.90;;;3.21;93.09;98135.16;5211416;28;20201;-82
2022/04/03 06:54:47;;;;;;;11.93;10.73;;;1.90;99.90;;;3.50;93.08;98133.59;5210025;28;20194;-82
2022/04/03 06:57:20;;;;;;;11.77;10.80;;;2.30;99.90;;;3.81;89.53;98131.22;5209615;28;20282;-82
2022/04/03 06:59:57;;;;;;;12.60;11.57;;;2.40;99.90;;;3.63;87.29;98142.25;5207577;28;20276;-83
2022/04/03 07:02:34;;;;;;;12.17;11.00;;;2.30;99.90;;;4.18;85.75;98144.53;5210382;28;20230;-83
2022/04/03 07:05:10;;;;;;;11.40;10.50;;;2.50;99.90;;;4.24;81.48;98140.00;5209604;28;20204;-81
2022/04/03 07:07:43;;;;;;;10.93;10.00;;;2.70;99.90;;;4.27;85.17;98141.13;5207217;28;20255;-84
2022/04/03 07:10:17;;;;;;;12.30;11.30;;;2.80;99.90;;;4.53;85.90;98145.00;5210243;28;20262;-84
2022/04/03 07:12:50;;;;;;;11.57;10.47;;;3.00;99.90;;;4.41;82.50;98144.84;5211801;28;20268;-84
2022/04/03 07:15:23;;;;;;;11.33;10.33;;;2.90;99.90;;;4.12;81.89;98154.09;5211375;28;20259;-85
2022/04/03 07:17:57;;;;;;;10.03;9.23;;;2.90;99.90;;;4.13;81.17;98155.88;5210921;28;20709;-85
2022/04/03 07:20:33;;;;;;;10.33;9.23;;;3.00;99.90;;;3.89;78.85;98157.16;5204119;28;20225;-88
2022/04/03 07:23:07;;;;;;;10.53;9.50;;;2.90;99.90;;;3.87;78.78;98157.03;5212077;28;20220;-86
2022/04/03 07:25:43;;;;;;;11.03;10.10;;;2.70;99.90;;;4.17;83.27;98168.91;5209651;28;20204;-86
2022/04/03 07:28:16;;;;;;;10.93;10.03;;;2.80;99.90;;;4.13;84.78;98161.84;5211931;28;20232;-86
2022/04/03 07:30:51;;;;;;;10.00;9.00;;;2.90;99.90;;;4.05;80.61;98162.81;5213101;28;20241;-86
2022/04/03 07:33:24;;;;;;;9.73;8.93;;;2.90;99.90;;;4.07;82.15;98162.19;5211815;28;20254;-86
2022/04/03 07:35:59;;;;;;;8.83;8.07;;;3.00;99.90;;;4.00;80.77;98169.97;5211942;28;20197;-85
2022/04/03 07:38:33;;;;;;;11.30;10.23;;;2.90;99.90;;;3.72;78.97;98168.31;5206509;28;20204;-86
2022/04/03 07:41:10;;;;;;;10.83;9.83;;;2.80;99.90;;;3.79;81.89;98173.16;5212781;28;20281;-87
2022/04/03 07:43:43;;;;;;;11.83;10.73;;;2.80;99.90;;;4.02;85.39;98178.59;5214783;28;20304;-86
2022/04/03 07:46:17;;;;;;;11.00;10.10;;;3.00;99.90;;;4.00;82.84;98180.09;5211983;28;20228;-88
2022/04/03 07:48:51;;;;;;;10.50;9.33;;;3.00;99.90;;;4.02;82.98;98181.13;5213767;28;20201;-85
2022/04/03 07:51:27;;;;;;;10.40;9.60;;;3.00;99.90;;;4.19;82.22;98191.81;5202522;28;20264;-84
2022/04/03 07:54:01;;;;;;;10.13;9.23;;;3.00;99.90;;;4.04;80.99;98184.69;5212727;28;20217;-84
2022/04/03 07:56:37;;;;;;;10.93;9.93;;;3.00;99.90;;;4.02;82.84;98188.72;5210426;28;20211;-83
2022/04/03 07:59:10;;;;;;;9.53;8.73;;;3.00;99.90;;;4.13;81.38;98191.31;5219958;28;20223;-85
2022/04/03 08:01:44;;;;;;;9.10;8.40;;;3.10;99.90;;;3.84;80.99;98202.28;5221399;28;20255;-86
2022/04/03 08:04:17;;;;;;;10.03;9.13;;;3.00;99.90;;;3.80;80.37;98206.16;5213156;28;20244;-85
2022/04/03 08:06:52;;;;;;;10.03;9.23;;;2.90;99.90;;;3.69;80.96;98213.53;5218231;28;20205;-86
2022/04/03 08:09:25;;;;;;;10.30;9.30;;;2.90;99.90;;;3.72;80.21;98211.28;5212302;28;22179;-85
2022/04/03 08:11:58;;;;;;;9.53;8.63;;;2.90;99.90;;;3.89;79.14;98213.66;5213754;28;20219;-85
2022/04/03 08:14:32;;;;;;;9.27;8.57;;;3.00;99.90;;;3.89;79.28;98211.13;5214532;28;20279;-83
2022/04/03 08:17:05;;;;;;;9.70;8.93;;;2.90;99.90;;;3.87;79.97;98219.38;5217826;28;20212;-85
2022/04/03 08:19:39;;;;;;;9.50;8.70;;;2.90;99.90;;;3.86;80.94;98215.03;5213430;28;20205;-84
2022/04/03 08:22:13;;;;;;;9.17;8.10;;;2.90;99.90;;;3.69;76.60;98219.50;5211414;28;20237;-83
2022/04/03 08:24:48;;;;;;;9.17;8.47;;;2.90;99.90;;;3.73;79.33;98218.13;5206987;28;20227;-83
2022/04/03 08:27:22;;;;;;;8.93;8.23;;;2.90;99.90;;;3.95;81.52;98216.75;5207216;28;20267;-83
2022/04/03 08:29:56;;;;;;;9.43;8.73;;;3.10;99.90;;;3.92;77.31;98219.03;5210270;28;20204;-84
2022/04/03 08:32:34;;;;;;;9.40;8.50;;;3.20;99.90;;;3.89;78.41;98218.72;5208047;28;20239;-85
2022/04/03 08:35:09;;;;;;;8.70;8.00;;;3.10;99.90;;;3.94;78.50;98225.06;5215683;28;20609;-84
2022/04/03 08:37:44;;;;;;;8.90;8.10;;;3.10;99.90;;;4.04;81.07;98225.16;5209711;28;20192;-84
2022/04/03 08:40:24;;;;;;;8.33;7.67;;;3.20;99.90;;;3.86;76.76;98226.03;5205267;28;20698;-84
2022/04/03 08:42:58;;;;;;;8.97;8.27;;;3.10;99.90;;;3.97;79.73;98221.94;5210494;28;20243;-84
2022/04/03 08:45:32;;;;;;;8.63;7.87;;;3.10;99.90;;;3.96;80.41;98223.56;5210859;28;20291;-85
2022/04/03 08:48:08;;;;;;;8.97;8.27;;;3.20;99.90;;;4.00;77.36;98229.78;5212283;28;20230;-82
2022/04/03 08:50:42;;;;;;;8.50;7.80;;;3.20;99.90;;;3.84;74.85;98232.63;5208180;28;20206;-82
2022/04/03 08:53:17;;;;;;;8.30;7.57;;;3.10;99.90;;;3.89;76.69;98228.84;5204337;28;20316;-80
2022/04/03 08:55:51;;;;;;;8.43;7.73;;;3.20;99.90;;;4.04;76.56;98235.25;5203605;28;20258;-80
2022/04/03 08:58:24;;;;;;;8.13;7.43;;;3.30;99.90;;;4.17;75.80;98241.38;5204828;28;20216;-80
2022/04/03 09:00:58;;;;;;;8.77;7.87;;;3.40;99.90;;;4.27;75.66;98237.28;5206113;28;20225;-81
2022/04/03 09:03:31;;;;;;;7.93;7.20;;;3.40;99.90;;;4.29;74.41;98244.97;5205821;28;20232;-82
2022/04/03 09:06:14;;;;;;;8.00;7.30;;;3.50;99.90;;;3.91;70.28;98234.91;5206016;28;20212;-82
2022/04/03 09:08:49;;;;;;;7.03;6.50;;;3.30;99.90;;;4.01;72.31;98237.53;5206736;28;20205;-80
2022/04/03 09:11:28;;;;;;;7.43;6.90;;;3.30;99.90;;;4.19;72.16;98242.41;5206046;28;20241;-81
2022/04/03 09:14:11;;;;;;;8.30;7.70;;;3.60;99.90;;;4.54;71.73;98239.53;5206815;28;20228;-81
2022/04/03 09:16:45;;;;;;;7.07;6.57;;;4.00;99.90;;;4.69;69.13;98230.72;5204131;28;20201;-81
2022/04/03 09:19:32;;;;;;;6.60;6.20;;;4.10;99.90;;;4.69;68.88;98228.19;5206552;28;20209;-81
2022/04/03 09:22:05;;;;;;;6.70;6.10;;;4.00;99.90;;;4.39;66.22;98232.38;5206532;28;20205;-80
2022/04/03 09:24:49;;;;;;;7.63;7.03;;;3.80;99.90;;;4.32;67.58;98235.16;5205566;28;20217;-81
2022/04/03 09:27:23;;;;;;;9.07;8.27;;;3.60;99.90;;;4.32;68.83;98235.16;5208594;28;20675;-80
2022/04/03 09:30:03;;;;;;;8.27;7.53;;;3.50;99.90;;;4.33;68.82;98236.91;5201019;28;20288;-82
2022/04/03 09:32:46;;;;;;;7.77;7.10;;;3.60;99.90;;;4.40;70.02;98239.22;5205693;28;20576;-81
2022/04/03 09:35:24;;;;;;;7.10;6.60;;;3.70;99.90;;;4.34;67.24;98241.22;5205091;28;20263;-80
2022/04/03 09:38:13;;;;;;;6.60;6.00;;;3.60;99.90;;;4.15;65.53;98240.34;5203884;28;20222;-81
2022/04/03 09:40:49;;;;;;;7.13;6.60;;;3.50;99.90;;;4.38;69.12;98240.75;5204508;28;20193;-82
2022/04/03 09:43:24;;;;;;;8.03;7.37;;;3.70;99.90;;;4.48;69.04;98245.84;5201165;28;20236;-83
2022/04/03 09:46:00;;;;;;;6.23;5.77;;;4.10;99.90;;;4.66;67.29;98246.53;5208227;28;20675;-82
2022/04/03 09:48:38;;;;;;;6.80;6.23;;;4.20;99.90;;;4.85;68.25;98241.41;5208770;28;20210;-82
2022/04/03 09:51:13;;;;;;;7.53;6.93;;;4.20;99.90;;;4.77;68.38;98246.56;5207940;28;20229;-82
2022/04/03 09:53:49;;;;;;;6.40;5.90;;;4.00;99.90;;;4.68;64.23;98250.06;5209042;28;20221;-82
2022/04/03 09:56:34;;;;;;;6.60;6.10;;;3.90;99.90;;;4.77;64.78;98247.44;5207391;28;20198;-81
2022/04/03 09:59:09;;;;;;;5.97;5.47;;;4.00;99.90;;;5.01;68.55;98242.69;5208093;28;20264;-84
2022/04/03 10:01:43;;;;;;;5.90;5.50;;;4.20;99.90;;;5.06;67.08;98241.44;5211051;28;20217;-85
2022/04/03 10:04:18;;;;;;;6.30;5.80;;;4.40;99.90;;;5.03;63.37;98238.63;5212080;28;20366;-83
2022/04/03 10:06:53;;;;;;;6.23;5.73;;;4.30;99.90;;;5.16;62.24;98244.00;5207249;28;20190;-82
2022/04/03 10:09:26;;;;;;;5.30;4.90;;;4.40;99.90;;;5.21;59.97;98240.22;5215455;28;20205;-85
2022/04/03 10:12:01;;;;;;;5.93;5.53;;;4.30;99.90;;;5.08;62.28;98245.00;5213731;28;20233;-83
2022/04/03 10:14:41;;;;;;;5.33;4.93;;;4.20;99.90;;;5.09;60.40;98246.75;5214706;28;20270;-83
2022/04/03 10:17:15;;;;;;;5.50;5.10;;;4.20;99.90;;;4.89;60.01;98245.97;5208781;28;20224;-82
2022/04/03 10:19:48;;;;;;;5.40;5.00;;;4.10;99.90;;;4.85;64.22;98254.06;5210272;28;20205;-81
2022/04/03 10:22:28;;;;;;;6.17;5.60;;;4.10;99.90;;;5.22;65.50;98243.63;5205626;28;20261;-80
2022/04/03 10:25:11;;;;;;;5.47;5.07;;;4.50;99.90;;;5.13;60.24;98246.28;5204773;28;20224;-82
2022/04/03 10:27:50;;;;;;;5.00;4.70;;;4.40;99.90;;;4.95;58.43;98249.03;5210463;28;20194;-81
2022/04/03 10:30:35;;;;;;;5.27;4.87;;;4.30;99.90;;;4.58;59.04;98254.22;5208820;28;20244;-82
2022/04/03 10:33:17;;;;;;;5.30;4.80;;;4.00;99.90;;;4.63;59.82;98255.50;5211848;28;20221;-83
2022/04/03 10:36:05;;;;;;;5.13;4.73;;;3.90;99.90;;;4.37;60.50;98249.06;5211471;28;20438;-82
2022/04/03 10:38:43;;;;;;;5.10;4.80;;;3.70;99.90;;;4.22;61.01;98252.81;5206724;28;20210;-82
2022/04/03 10:41:31;;;;;;;5.33;4.87;;;3.50;99.90;;;4.25;61.89;98248.91;5207153;28;20212;-82
2022/04/03 10:44:16;;;;;;;5.40;5.00;;;3.50;99.90;;;4.30;63.61;98244.25;5209128;28;20224;-82
2022/04/03 10:47:23;;;;;;;7.47;6.77;;;3.60;99.90;;;4.64;61.33;98244.63;5206008;28;20296;-82
2022/04/03 10:50:02;;;;;;;6.17;5.73;;;4.00;99.90;;;4.99;61.82;98234.09;5209996;28;20209;-83
2022/04/03 10:52:57;;;;;;;5.67;5.17;;;4.50;99.90;;;5.47;60.25;98237.31;5215136;28;20649;-83